Time;durP1;ratioP1;P1;durP2;ratioP2;P2;SDS_P1;SDS_P2;PMS_P1;PMS_P2;Temp;Humidity;BMP_temperature;BMP_pressure;BME280_temperature;BME280_humidity;BME280_pressure;Samples;Min_cycle;Max_cycle;Signal;HPM_P1;HPM_P2
2023/05/21 00:01:15;;;;;;;13.18;6.45;;;;;;;19.06;51.65;99933.16;7553222;33;37844;-79
2023/05/21 00:05:31;;;;;;;13.10;6.43;;;;;;;18.98;51.84;99931.22;7581209;33;37509;-79
2023/05/21 00:09:47;;;;;;;12.10;6.37;;;;;;;19.06;51.42;99921.31;7579874;33;40118;-79
2023/05/21 00:14:04;;;;;;;13.02;6.97;;;;;;;19.05;51.37;99911.38;7581096;33;40745;-78
2023/05/21 00:18:21;;;;;;;13.30;6.32;;;;;;;19.07;51.31;99907.16;7580971;33;38587;-79
2023/05/21 00:22:37;;;;;;;12.73;6.35;;;;;;;19.15;50.93;99900.00;7581091;33;36857;-79
2023/05/21 00:26:53;;;;;;;9.82;6.25;;;;;;;19.19;50.87;99905.69;7581026;33;39499;-79
2023/05/21 00:31:09;;;;;;;15.43;7.20;;;;;;;19.09;51.49;99918.72;7580955;33;40860;-79
2023/05/21 00:35:26;;;;;;;14.57;7.07;;;;;;;18.73;52.64;99927.25;7579298;33;38463;-78
2023/05/21 00:39:42;;;;;;;14.05;6.47;;;;;;;18.80;52.64;99929.53;7555036;33;37184;-78
2023/05/21 00:43:59;;;;;;;12.30;7.05;;;;;;;18.66;53.15;99930.53;7557263;33;39452;-78
2023/05/21 00:48:15;;;;;;;13.45;7.57;;;;;;;18.68;53.09;99943.97;7580648;33;39764;-79
2023/05/21 00:52:32;;;;;;;10.30;6.43;;;;;;;18.42;53.88;99932.87;7580526;33;37955;-79
2023/05/21 00:56:49;;;;;;;11.00;6.35;;;;;;;18.45;53.75;99935.81;7580488;33;37240;-78
2023/05/21 01:01:05;;;;;;;11.75;6.68;;;;;;;18.52;53.61;99935.34;7580801;33;39736;-78
2023/05/21 01:05:22;;;;;;;10.90;6.47;;;;;;;18.37;54.19;99936.62;7580490;33;40060;-78
2023/05/21 01:09:39;;;;;;;12.45;6.28;;;;;;;18.34;54.17;99938.06;7580384;33;38719;-78
2023/05/21 01:13:56;;;;;;;12.40;7.03;;;;;;;18.51;53.62;99929.03;7579561;33;37228;-79
2023/05/21 01:18:13;;;;;;;14.32;7.12;;;;;;;18.41;53.97;99929.31;7565762;33;39436;-79
2023/05/21 01:22:31;;;;;;;14.13;7.07;;;;;;;18.46;53.93;99925.59;7567750;33;40860;-79
2023/05/21 01:26:48;;;;;;;11.65;6.50;;;;;;;18.15;54.77;99926.50;7541509;33;38036;-80
2023/05/21 01:31:14;;;;;;;14.00;7.30;;;;;;;18.14;54.97;99931.19;7554388;33;38223;-79
2023/05/21 01:35:38;;;;;;;11.30;6.78;;;;;;;18.26;54.62;99938.84;7551748;33;40162;-80
2023/05/21 01:39:58;;;;;;;10.98;6.37;;;;;;;18.15;55.28;99926.50;7579837;33;39934;-79
2023/05/21 01:44:17;;;;;;;11.55;7.10;;;;;;;18.22;55.13;99918.56;7567212;33;37592;-79
2023/05/21 01:48:33;;;;;;;12.15;7.22;;;;;;;18.20;55.09;99910.59;7567132;33;37024;-79
2023/05/21 01:52:55;;;;;;;14.60;7.40;;;;;;;18.10;55.55;99921.91;7567279;33;39329;-79
2023/05/21 01:57:12;;;;;;;12.93;7.18;;;;;;;18.01;55.81;99927.41;7554256;33;39918;-79
2023/05/21 02:01:29;;;;;;;15.05;7.25;;;;;;;18.04;55.76;99920.47;7565708;33;37574;-80
2023/05/21 02:05:46;;;;;;;12.85;7.03;;;;;;;18.11;55.43;99923.56;7579817;33;37213;-79
2023/05/21 02:10:02;;;;;;;12.07;6.50;;;;;;;18.00;55.81;99922.22;7579661;33;40152;-80
2023/05/21 02:14:19;;;;;;;13.35;7.25;;;;;;;17.90;56.14;99925.25;7579631;33;40517;-80
2023/05/21 02:18:35;;;;;;;11.27;6.30;;;;;;;18.02;55.69;99923.53;7579533;33;38985;-79
2023/05/21 02:22:52;;;;;;;16.90;6.78;;;;;;;18.05;55.47;99921.25;7566384;33;36831;-79
2023/05/21 02:27:09;;;;;;;11.40;7.22;;;;;;;17.93;55.81;99924.63;7578273;33;39327;-79
2023/05/21 02:31:25;;;;;;;15.15;6.72;;;;;;;17.91;55.98;99924.94;7569062;33;40913;-79
2023/05/21 02:35:42;;;;;;;12.13;6.97;;;;;;;17.73;56.65;99926.78;7553394;33;37829;-79
2023/05/21 02:40:00;;;;;;;14.15;6.57;;;;;;;17.83;56.42;99922.91;7553471;33;36950;-79
2023/05/21 02:44:18;;;;;;;13.13;6.80;;;;;;;17.90;55.96;99920.56;7532403;33;39384;-79
2023/05/21 02:48:34;;;;;;;14.90;6.57;;;;;;;17.93;55.78;99928.19;7579011;33;39930;-80
2023/05/21 02:52:51;;;;;;;13.85;6.85;;;;;;;17.93;55.96;99919.09;7578662;33;38847;-79
2023/05/21 02:57:07;;;;;;;12.65;6.82;;;;;;;17.86;56.10;99919.56;7578612;33;38057;-79
2023/05/21 03:01:23;;;;;;;14.23;7.22;;;;;;;17.74;56.59;99919.31;7578701;33;39490;-79
2023/05/21 03:05:40;;;;;;;14.95;6.87;;;;;;;17.79;56.52;99911.69;7578586;33;40754;-79
2023/05/21 03:09:56;;;;;;;11.98;6.80;;;;;;;17.83;56.43;99903.59;7578526;33;38542;-80
2023/05/21 03:14:13;;;;;;;11.02;6.85;;;;;;;17.88;56.37;99913.72;7577036;33;37963;-79
2023/05/21 03:18:29;;;;;;;12.70;7.03;;;;;;;17.80;56.49;99921.59;7578174;33;39479;-80
2023/05/21 03:22:47;;;;;;;14.25;6.78;;;;;;;17.68;56.99;99923.31;7578221;33;39921;-80
2023/05/21 03:27:05;;;;;;;13.70;7.30;;;;;;;17.77;56.74;99924.19;7578041;33;37567;-80
2023/05/21 03:31:25;;;;;;;11.35;6.68;;;;;;;17.83;56.49;99925.66;7566881;33;37434;-79
2023/05/21 03:35:41;;;;;;;14.75;6.93;;;;;;;17.75;56.90;99919.00;7552054;33;40177;-79
2023/05/21 03:39:58;;;;;;;11.93;6.85;;;;;;;17.81;56.70;99922.41;7554671;33;40802;-79
2023/05/21 03:44:14;;;;;;;12.10;6.87;;;;;;;17.89;56.23;99918.13;7555757;33;37978;-79
2023/05/21 03:48:31;;;;;;;10.02;6.40;;;;;;;17.81;56.82;99922.41;7555726;33;37213;-79
2023/05/21 03:52:47;;;;;;;12.43;6.93;;;;;;;17.75;57.36;99930.03;7556377;33;39136;-80
2023/05/21 03:57:03;;;;;;;12.07;7.03;;;;;;;17.82;57.02;99924.84;7555611;33;40879;-79
2023/05/21 04:01:20;;;;;;;14.05;6.55;;;;;;;17.82;57.29;99921.28;7565145;33;38623;-79
2023/05/21 04:05:36;;;;;;;13.50;7.03;;;;;;;17.92;57.12;99923.81;7581257;33;37270;-79
2023/05/21 04:09:53;;;;;;;12.07;6.50;;;;;;;17.90;57.58;99920.56;7581238;33;39571;-79
2023/05/21 04:14:09;;;;;;;12.95;7.00;;;;;;;18.09;56.82;99928.59;7579473;33;40780;-79
2023/05/21 04:18:25;;;;;;;11.27;6.95;;;;;;;17.93;57.61;99930.94;7580876;33;37975;-79
2023/05/21 04:22:42;;;;;;;13.13;6.60;;;;;;;17.96;57.72;99924.78;7581075;33;38083;-79
2023/05/21 04:27:00;;;;;;;10.68;6.47;;;;;;;18.17;56.94;99926.97;7581033;33;39328;-79
2023/05/21 04:31:16;;;;;;;11.43;6.68;;;;;;;18.30;56.14;99926.06;7580872;33;40012;-79
2023/05/21 04:35:34;;;;;;;14.90;6.40;;;;;;;18.09;57.07;99928.59;7580789;33;38526;-79
2023/05/21 04:39:50;;;;;;;14.60;6.95;;;;;;;18.01;58.68;99926.59;7580727;33;38006;-79
2023/05/21 04:44:07;;;;;;;12.52;6.70;;;;;;;18.15;58.89;99920.97;7578802;33;39017;-80
2023/05/21 04:48:26;;;;;;;9.65;6.47;;;;;;;18.39;58.50;99915.03;7554687;33;40774;-80
2023/05/21 04:52:44;;;;;;;12.20;7.00;;;;;;;18.62;57.08;99924.00;7554654;33;36896;-79
2023/05/21 04:57:01;;;;;;;12.88;6.78;;;;;;;18.70;55.76;99917.69;7554887;33;37143;-79
2023/05/21 05:01:18;;;;;;;11.35;6.40;;;;;;;18.86;55.76;99914.47;7554718;33;40029;-79
2023/05/21 05:05:34;;;;;;;12.13;6.72;;;;;;;18.79;56.60;99916.87;7559720;33;39982;-79
2023/05/21 05:09:51;;;;;;;12.02;6.00;;;;;;;19.02;56.11;99912.84;7580150;33;38404;-79
2023/05/21 05:14:07;;;;;;;19.25;6.37;;;;;;;19.31;55.39;99905.84;7580558;33;36799;-79
2023/05/21 05:18:23;;;;;;;8.70;6.10;;;;;;;19.72;54.11;99909.97;7580385;33;39443;-80
2023/05/21 05:22:39;;;;;;;13.65;6.32;;;;;;;19.76;53.41;99905.41;7580286;33;40768;-80
2023/05/21 05:26:56;;;;;;;10.15;6.10;;;;;;;20.09;52.03;99907.56;7580028;33;37864;-79
2023/05/21 05:31:12;;;;;;;10.15;5.15;;;;;;;20.33;51.37;99897.84;7580356;33;37997;-79
2023/05/21 05:35:28;;;;;;;9.68;5.18;;;;;;;;;;7554971;33;39841;-69
2023/05/21 05:39:45;;;;;;;12.27;5.25;;;;;;;20.36;51.81;99894.41;7540475;33;39741;-69
2023/05/21 05:44:01;;;;;;;10.15;5.07;;;;;;;20.61;50.52;99890.66;7565603;33;37565;-69
2023/05/21 05:48:17;;;;;;;9.50;5.40;;;;;;;21.23;49.59;99893.75;7549471;33;37123;-67
2023/05/21 05:52:33;;;;;;;9.80;5.65;;;;;;;21.24;49.37;99886.25;7548836;33;39453;-72
2023/05/21 05:56:49;;;;;;;10.50;5.28;;;;;;;21.48;48.73;99888.31;7539401;33;40092;-72
2023/05/21 06:01:05;;;;;;;8.32;5.47;;;;;;;21.75;47.96;99886.87;7528557;33;37583;-73
2023/05/21 06:05:22;;;;;;;11.35;5.62;;;;;;;22.08;47.26;99874.84;7537867;33;37094;-69
2023/05/21 06:09:38;;;;;;;12.75;5.43;;;;;;;21.67;47.57;99882.22;7554326;33;40203;-74
2023/05/21 06:13:54;;;;;;;9.98;5.40;;;;;;;22.08;47.28;99869.31;7561568;33;40034;-75
2023/05/21 06:18:11;;;;;;;8.95;4.87;;;;;;;22.03;47.32;99873.13;7579793;33;37735;-73
2023/05/21 06:22:27;;;;;;;9.85;5.32;;;;;;;22.30;47.33;99856.91;7576014;33;37718;-75
2023/05/21 06:26:43;;;;;;;8.82;5.20;;;;;;;22.42;47.15;99869.97;7553909;33;39543;-75
2023/05/21 06:30:59;;;;;;;9.13;5.22;;;;;;;22.71;46.55;99857.75;7553574;33;39890;-71
2023/05/21 06:35:16;;;;;;;6.95;4.47;;;;;;;22.66;46.27;99855.22;7553483;33;37881;-70
2023/05/21 06:39:32;;;;;;;10.90;5.12;;;;;;;23.02;45.69;99859.84;7553693;33;37500;-67
2023/05/21 06:43:48;;;;;;;8.93;5.20;;;;;;;23.35;45.24;99855.19;7553554;33;39484;-67
2023/05/21 06:48:05;;;;;;;9.70;5.22;;;;;;;23.06;46.06;99846.09;7553484;33;40100;-71
2023/05/21 06:52:21;;;;;;;9.55;5.20;;;;;;;23.04;45.67;99842.81;7555042;33;37945;-68
2023/05/21 06:56:39;;;;;;;9.80;4.80;;;;;;;23.50;45.07;99848.84;7577774;33;37823;-68
2023/05/21 07:00:56;;;;;;;9.10;4.80;;;;;;;23.45;44.78;99835.19;7578832;33;39891;-71
2023/05/21 07:05:12;;;;;;;8.65;4.75;;;;;;;23.76;45.02;99839.94;7578811;33;40114;-71
2023/05/21 07:09:28;;;;;;;9.57;4.97;;;;;;;23.86;43.53;99841.44;7578572;33;38048;-77
2023/05/21 07:13:45;;;;;;;11.60;4.90;;;;;;;23.44;44.46;99839.16;7575305;33;37195;-77
2023/05/21 07:18:01;;;;;;;6.57;4.10;;;;;;;23.71;43.56;99848.56;7553696;33;39977;-76
2023/05/21 07:22:18;;;;;;;11.85;4.65;;;;;;;23.87;43.72;99840.28;7570077;33;40000;-76
2023/05/21 07:26:34;;;;;;;8.32;4.80;;;;;;;23.65;44.03;99840.87;7581759;33;37902;-76
2023/05/21 07:30:51;;;;;;;8.38;4.68;;;;;;;23.54;43.46;99838.63;7581808;33;37625;-77
2023/05/21 07:35:07;;;;;;;8.63;4.50;;;;;;;24.28;43.98;99835.22;7581554;33;40149;-77
2023/05/21 07:39:23;;;;;;;8.00;4.18;;;;;;;24.47;42.83;99837.25;7580924;33;40071;-78
2023/05/21 07:43:40;;;;;;;8.25;4.35;;;;;;;24.56;42.01;99834.31;7570672;33;38691;-78
2023/05/21 07:47:56;;;;;;;7.10;4.03;;;;;;;24.99;41.11;99832.41;7581469;33;37848;-78
2023/05/21 07:52:12;;;;;;;10.40;4.12;;;;;;;25.04;40.98;99831.28;7579954;33;40233;-80
2023/05/21 07:56:28;;;;;;;5.40;3.60;;;;;;;24.69;40.96;99829.38;7581431;33;40133;-78
2023/05/21 08:00:46;;;;;;;6.85;3.72;;;;;;;25.04;40.42;99820.94;7581313;33;37623;-78
2023/05/21 08:05:02;;;;;;;7.85;3.70;;;;;;;25.03;39.39;99824.09;7533986;33;37114;-77
2023/05/21 08:09:19;;;;;;;10.02;3.70;;;;;;;24.93;39.20;99831.06;7530164;33;39898;-76
2023/05/21 08:13:35;;;;;;;8.02;3.87;;;;;;;25.06;37.68;99828.91;7529877;33;39677;-75
2023/05/21 08:17:51;;;;;;;7.75;3.67;;;;;;;25.21;37.19;99824.41;7529799;33;38835;-76
2023/05/21 08:22:07;;;;;;;5.80;3.55;;;;;;;25.70;37.39;99826.53;7534321;33;37793;-77
2023/05/21 08:26:24;;;;;;;10.27;3.60;;;;;;;25.31;36.93;99829.44;7580088;33;39301;-76
2023/05/21 08:30:40;;;;;;;8.80;3.90;;;;;;;25.90;36.66;99818.84;7578440;33;39962;-77
2023/05/21 08:34:57;;;;;;;6.22;3.30;;;;;;;25.75;36.61;99826.22;7554999;33;39135;-76
2023/05/21 08:39:13;;;;;;;6.43;3.47;;;;;;;25.97;37.75;99818.97;7555259;33;36953;-77
2023/05/21 08:43:29;;;;;;;8.35;3.10;;;;;;;26.02;37.09;99813.06;7541933;33;39158;-77
2023/05/21 08:47:46;;;;;;;6.22;3.37;;;;;;;26.04;36.40;99821.06;7555130;33;40873;-77
2023/05/21 08:52:03;;;;;;;6.95;3.85;;;;;;;25.92;36.97;99824.06;7554964;33;38795;-76
2023/05/21 08:56:20;;;;;;;7.80;3.55;;;;;;;26.01;38.65;99816.28;7555073;33;37000;-78
2023/05/21 09:00:36;;;;;;;7.07;3.87;;;;;;;26.28;37.53;99821.81;7542164;33;40116;-79
2023/05/21 09:04:58;;;;;;;7.87;3.65;;;;;;;26.09;37.50;99817.16;7554821;33;39994;-79
2023/05/21 09:09:31;;;;;;;9.25;3.75;;;;;;;26.26;39.41;99813.03;7555252;33;36778;-76
2023/05/21 09:13:49;;;;;;;5.87;3.53;;;;;;;26.26;39.25;99813.03;7542604;33;37743;-77
2023/05/21 09:18:05;;;;;;;7.68;3.40;;;;;;;26.99;36.26;99807.97;7541695;33;40056;-77
2023/05/21 09:22:23;;;;;;;8.05;3.78;;;;;;;27.15;32.87;99816.16;7554830;33;40845;-78
2023/05/21 09:26:42;;;;;;;7.12;3.35;;;;;;;26.88;34.79;99816.25;7566905;33;37956;-79
2023/05/21 09:31:02;;;;;;;9.52;3.85;;;;;;;26.78;32.34;99809.31;7580474;33;37692;-79
2023/05/21 09:35:21;;;;;;;4.80;2.95;;;;;;;27.01;34.84;99807.56;7553128;33;39504;-77
2023/05/21 09:39:38;;;;;;;6.95;3.78;;;;;;;27.52;33.17;99804.91;7543732;33;40855;-77
2023/05/21 09:43:59;;;;;;;7.28;3.40;;;;;;;27.63;34.42;99810.63;7550968;33;38584;-81
2023/05/21 09:48:16;;;;;;;7.53;3.30;;;;;;;27.70;34.09;99807.88;7538178;33;37782;-82
2023/05/21 09:52:34;;;;;;;6.40;3.62;;;;;;;28.22;33.92;99807.06;7537768;33;39411;-82
2023/05/21 09:56:52;;;;;;;8.13;3.55;;;;;;;28.64;32.85;99802.87;7537385;33;39633;-82
2023/05/21 10:01:12;;;;;;;6.95;3.20;;;;;;;28.13;31.97;99813.03;7541745;33;37966;-82
2023/05/21 10:05:31;;;;;;;5.85;3.47;;;;;;;27.70;31.61;99804.28;7535644;33;37620;-82
2023/05/21 10:09:49;;;;;;;6.12;3.70;;;;;;;28.00;36.20;99804.13;7537783;33;39627;-82
2023/05/21 10:14:15;;;;;;;7.12;3.17;;;;;;;28.51;31.55;99801.59;7534707;33;39248;-77
2023/05/21 10:18:32;;;;;;;6.15;3.33;;;;;;;28.67;32.75;99796.50;7539701;33;38615;-77
2023/05/21 10:22:49;;;;;;;6.28;3.40;;;;;;;28.86;33.88;99797.38;7552717;33;37981;-76
2023/05/21 10:27:06;;;;;;;6.78;3.72;;;;;;;28.80;31.29;99789.34;7540233;33;39021;-77
2023/05/21 10:31:23;;;;;;;6.32;3.58;;;;;;;28.92;32.07;99785.34;7553397;33;40818;-77
2023/05/21 10:35:40;;;;;;;6.65;3.55;;;;;;;29.00;31.65;99780.56;7553536;33;38839;-77
2023/05/21 10:39:56;;;;;;;7.22;3.90;;;;;;;28.84;31.88;99780.94;7553484;33;37795;-77
2023/05/21 10:44:57;;;;;;;9.40;3.72;;;;;;;28.62;33.92;99782.84;7571603;33;39973;-77
2023/05/21 10:49:50;;;;;;;6.60;3.22;;;;;;;29.24;31.33;99778.22;7542746;33;40567;-77
2023/05/21 10:54:30;;;;;;;12.20;3.83;;;;;;;29.34;32.91;99771.81;7578954;33;39164;-76
2023/05/21 10:59:24;;;;;;;12.95;3.83;;;;;;;29.18;30.89;99763.75;7578878;33;37230;-77
2023/05/21 11:03:40;;;;;;;5.65;3.62;;;;;;;28.53;32.34;99773.94;7578832;33;39557;-77
2023/05/21 11:07:57;;;;;;;7.00;3.47;;;;;;;28.89;32.20;99771.28;7556649;33;40590;-76
2023/05/21 11:12:14;;;;;;;10.20;3.78;;;;;;;28.98;32.03;99766.13;7559089;33;38641;-78
2023/05/21 11:16:30;;;;;;;10.05;4.07;;;;;;;29.05;31.44;99762.53;7554325;33;37235;-76
2023/05/21 11:20:50;;;;;;;7.95;3.33;;;;;;;29.61;31.76;99751.75;7536115;33;39502;-78
2023/05/21 11:25:07;;;;;;;13.15;3.53;;;;;;;29.52;30.23;99758.56;7539269;33;40040;-75
2023/05/21 11:29:39;;;;;;;7.22;3.53;;;;;;;29.74;32.12;99750.94;7552740;33;37930;-76
2023/05/21 11:34:27;;;;;;;9.95;4.18;;;;;;;29.82;30.96;99743.34;7552481;33;37016;-76
2023/05/21 11:39:03;;;;;;;6.20;3.28;;;;;;;29.92;30.33;99750.91;7562592;33;39111;-74
2023/05/21 11:43:20;;;;;;;5.87;3.17;;;;;;;30.30;30.11;99739.16;7523433;33;40943;-75
2023/05/21 11:47:36;;;;;;;6.93;3.40;;;;;;;30.44;30.04;99735.50;7555303;33;38097;-74
2023/05/21 11:51:52;;;;;;;8.68;3.62;;;;;;;30.23;29.73;99734.37;7551970;33;37826;-75
2023/05/21 11:56:10;;;;;;;9.05;3.65;;;;;;;30.54;30.57;99729.03;7552586;33;40500;-75
2023/05/21 12:00:27;;;;;;;8.70;3.50;;;;;;;30.64;29.67;99728.19;7554173;33;39838;-77
2023/05/21 12:04:45;;;;;;;15.77;3.53;;;;;;;30.25;28.68;99722.72;7542891;33;38620;-76
2023/05/21 12:09:03;;;;;;;7.07;3.10;;;;;;;30.22;31.00;99729.16;7542473;33;37788;-77
2023/05/21 12:13:21;;;;;;;13.38;3.47;;;;;;;30.56;28.96;99725.81;7569675;33;39883;-75
2023/05/21 12:17:38;;;;;;;6.60;3.20;;;;;;;30.32;30.10;99722.69;7563420;33;39792;-76
2023/05/21 12:21:54;;;;;;;7.57;3.50;;;;;;;30.73;30.50;99712.88;7580959;33;37867;-77
2023/05/21 12:26:11;;;;;;;5.95;3.17;;;;;;;31.13;28.09;99707.78;7567951;33;36804;-76
2023/05/21 12:30:27;;;;;;;10.63;3.40;;;;;;;31.04;27.43;99709.06;7581047;33;39977;-76
2023/05/21 12:34:46;;;;;;;10.68;3.50;;;;;;;30.88;29.73;99703.13;7563938;33;40701;-77
2023/05/21 12:39:02;;;;;;;6.90;3.42;;;;;;;31.22;27.39;99694.06;7555005;33;37056;-77
2023/05/21 12:43:18;;;;;;;7.35;3.20;;;;;;;31.87;29.61;99699.06;7555345;33;37206;-76
2023/05/21 12:47:35;;;;;;;6.85;3.05;;;;;;;31.68;26.99;99698.47;7568810;33;39839;-77
2023/05/21 12:51:55;;;;;;;6.87;3.53;;;;;;;31.64;26.98;99692.88;7580740;33;40817;-76
2023/05/21 12:56:12;;;;;;;5.20;2.87;;;;;;;31.17;27.36;99688.87;7580518;33;37164;-79
2023/05/21 13:00:28;;;;;;;8.85;3.33;;;;;;;31.98;27.87;99682.84;7580586;33;38089;-75
2023/05/21 13:04:45;;;;;;;11.10;3.12;;;;;;;31.68;25.81;99681.56;7570702;33;39477;-76
2023/05/21 13:09:01;;;;;;;5.37;3.20;;;;;;;31.79;26.20;99676.62;7541733;33;40003;-78
2023/05/21 13:13:18;;;;;;;4.50;2.92;;;;;;;31.88;26.21;99672.50;7554066;33;37866;-77
2023/05/21 13:17:34;;;;;;;10.15;3.25;;;;;;;32.15;25.48;99659.31;7554930;33;37832;-78
2023/05/21 13:21:50;;;;;;;4.68;2.80;;;;;;;32.23;24.53;99664.84;7554696;33;39313;-77
2023/05/21 13:26:08;;;;;;;6.37;2.78;;;;;;;32.22;26.96;99664.06;7554757;33;39697;-78
2023/05/21 13:30:24;;;;;;;4.60;3.00;;;;;;;31.86;24.38;99664.47;7565559;33;37951;-77
2023/05/21 13:34:41;;;;;;;7.30;4.00;;;;;;;32.34;24.49;99657.84;7580377;33;37882;-78
2023/05/21 13:38:57;;;;;;;4.50;2.85;;;;;;;32.14;23.25;99651.28;7579761;33;39075;-76
2023/05/21 13:43:13;;;;;;;5.65;2.85;;;;;;;32.04;22.43;99652.97;7580016;33;40846;-75
2023/05/21 13:47:31;;;;;;;6.53;3.08;;;;;;;32.47;24.65;99645.97;7580180;33;38763;-75
2023/05/21 13:51:47;;;;;;;6.12;3.08;;;;;;;32.55;22.97;99645.44;7580249;33;36812;-75
2023/05/21 13:56:04;;;;;;;5.53;3.03;;;;;;;32.32;21.86;99639.72;7579561;33;39469;-75
2023/05/21 14:00:20;;;;;;;5.20;3.15;;;;;;;31.95;21.76;99638.59;7569447;33;40113;-74
2023/05/21 14:04:37;;;;;;;5.20;3.40;;;;;;;31.64;21.97;99632.91;7579915;33;38724;-76
2023/05/21 14:08:54;;;;;;;5.43;3.03;;;;;;;31.87;22.53;99635.03;7563586;33;37988;-76
2023/05/21 14:13:11;;;;;;;5.78;3.28;;;;;;;32.35;21.84;99627.63;7562625;33;37572;-79
2023/05/21 14:17:35;;;;;;;6.25;3.05;;;;;;;32.80;22.98;99627.34;7554308;33;39982;-76
2023/05/21 14:21:51;;;;;;;5.18;3.08;;;;;;;33.10;19.37;99631.31;7553857;33;37568;-75
2023/05/21 14:26:07;;;;;;;8.32;3.08;;;;;;;33.89;20.68;99624.19;7554060;33;37535;-75
2023/05/21 14:30:24;;;;;;;8.95;3.45;;;;;;;33.62;19.45;99627.16;7567065;33;39370;-78
2023/05/21 14:34:40;;;;;;;6.65;3.15;;;;;;;33.60;20.48;99621.13;7579539;33;39894;-75
2023/05/21 14:38:56;;;;;;;7.22;3.00;;;;;;;33.72;19.05;99617.69;7579159;33;38015;-76
2023/05/21 14:43:12;;;;;;;8.27;3.20;;;;;;;33.80;19.31;99616.31;7579303;33;37197;-75
2023/05/21 14:47:29;;;;;;;7.28;3.55;;;;;;;33.60;18.41;99607.81;7579310;33;39291;-77
2023/05/21 14:51:46;;;;;;;6.97;3.45;;;;;;;33.57;18.52;99611.50;7579302;33;39694;-78
2023/05/21 14:56:02;;;;;;;9.80;3.55;;;;;;;32.50;20.96;99622.56;7579050;33;38021;-76
2023/05/21 15:00:19;;;;;;;5.72;3.40;;;;;;;32.65;19.95;99623.16;7577580;33;37215;-77
2023/05/21 15:04:35;;;;;;;5.95;3.30;;;;;;;32.89;20.81;99610.69;7578866;33;39984;-78
2023/05/21 15:08:52;;;;;;;7.95;3.40;;;;;;;32.75;20.51;99622.19;7578732;33;40172;-78
2023/05/21 15:13:08;;;;;;;12.20;3.37;;;;;;;32.22;21.55;99624.59;7566873;33;38654;-78
2023/05/21 15:17:24;;;;;;;8.50;3.37;;;;;;;32.67;20.16;99615.88;7567839;33;37083;-75
2023/05/21 15:21:41;;;;;;;8.30;3.10;;;;;;;33.16;21.89;99609.84;7552722;33;40124;-76
2023/05/21 15:25:57;;;;;;;5.40;2.90;;;;;;;33.40;21.56;99609.81;7566525;33;40573;-77
2023/05/21 15:30:13;;;;;;;9.63;3.50;;;;;;;33.20;20.22;99607.78;7578115;33;37935;-77
2023/05/21 15:34:30;;;;;;;7.35;4.85;;;;;;;33.09;21.55;99604.28;7579659;33;37336;-77
2023/05/21 15:38:46;;;;;;;6.75;3.45;;;;;;;32.97;21.51;99608.53;7574216;33;39498;-78
2023/05/21 15:43:03;;;;;;;7.97;3.72;;;;;;;33.08;20.64;99609.16;7555840;33;39697;-78
2023/05/21 15:47:19;;;;;;;7.12;3.80;;;;;;;33.36;21.16;99603.41;7570281;33;37726;-77
2023/05/21 15:51:35;;;;;;;6.35;3.53;;;;;;;33.18;19.60;99610.19;7581609;33;38116;-77
2023/05/21 15:55:52;;;;;;;5.35;3.40;;;;;;;32.91;20.07;99608.22;7569238;33;39391;-79
2023/05/21 16:00:09;;;;;;;12.68;7.28;;;;;;;33.06;21.50;99602.31;7555675;33;40135;-79
2023/05/21 16:04:25;;;;;;;13.52;5.40;;;;;;;32.89;22.15;99607.03;7555703;33;38036;-79
2023/05/21 16:08:42;;;;;;;6.32;3.85;;;;;;;32.92;21.55;99601.34;7555604;33;37981;-79
2023/05/21 16:12:58;;;;;;;5.78;3.30;;;;;;;32.55;22.37;99607.97;7560308;33;40143;-77
2023/05/21 16:17:15;;;;;;;5.10;2.92;;;;;;;32.80;20.97;99612.44;7581011;33;40862;-77
2023/05/21 16:21:32;;;;;;;7.07;3.22;;;;;;;32.78;21.86;99610.06;7556139;33;38014;-78
2023/05/21 16:25:49;;;;;;;5.35;3.42;;;;;;;32.52;22.27;99614.47;7555968;33;37151;-82
2023/05/21 16:30:06;;;;;;;7.55;3.10;;;;;;;32.17;21.82;99617.38;7556912;33;40087;-79
2023/05/21 16:34:22;;;;;;;9.55;3.20;;;;;;;31.83;22.35;99625.84;7555994;33;38577;-79
2023/05/21 16:38:39;;;;;;;5.22;3.15;;;;;;;31.39;22.68;99625.50;7555151;33;38150;-79
2023/05/21 16:42:55;;;;;;;6.82;3.22;;;;;;;31.55;22.85;99621.34;7554874;33;36724;-79
2023/05/21 16:47:11;;;;;;;6.47;3.40;;;;;;;31.42;23.55;99624.66;7554286;33;39002;-78
2023/05/21 16:51:27;;;;;;;4.40;3.30;;;;;;;31.31;23.92;99618.34;7555104;33;39985;-79
2023/05/21 16:55:43;;;;;;;6.70;3.47;;;;;;;31.31;24.27;99623.19;7555038;33;37991;-80
2023/05/21 17:00:02;;;;;;;6.55;3.72;;;;;;;31.24;24.30;99629.69;7554996;33;37146;-78
2023/05/21 17:04:19;;;;;;;6.07;3.37;;;;;;;30.90;24.61;99636.75;7554400;33;38301;-78
2023/05/21 17:08:35;;;;;;;7.20;3.30;;;;;;;30.74;24.91;99641.34;7554972;33;39657;-78
2023/05/21 17:12:52;;;;;;;6.12;3.20;;;;;;;30.73;24.71;99634.09;7554435;33;37973;-78
2023/05/21 17:17:08;;;;;;;5.75;3.40;;;;;;;30.39;26.17;99635.53;7554963;33;37362;-79
2023/05/21 17:21:25;;;;;;;6.12;3.33;;;;;;;30.26;26.57;99632.34;7554823;33;40160;-79
2023/05/21 17:25:41;;;;;;;7.15;3.80;;;;;;;29.96;27.34;99635.72;7554789;33;39998;-78
2023/05/21 17:29:58;;;;;;;7.45;3.50;;;;;;;29.82;27.64;99630.97;7554672;33;38759;-78
2023/05/21 17:34:15;;;;;;;7.72;3.20;;;;;;;29.57;28.59;99622.56;7554680;33;37969;-78
2023/05/21 17:38:32;;;;;;;8.80;3.80;;;;;;;29.29;29.17;99623.44;7554597;33;40191;-78
2023/05/21 17:42:48;;;;;;;9.10;3.50;;;;;;;29.06;29.63;99621.81;7554516;33;40848;-79
2023/05/21 17:47:05;;;;;;;8.13;3.53;;;;;;;28.71;30.66;99617.78;7554440;33;37813;-79
2023/05/21 17:51:21;;;;;;;8.75;3.40;;;;;;;28.38;31.92;99628.13;7554571;33;37880;-78
2023/05/21 17:55:38;;;;;;;10.27;3.67;;;;;;;28.19;32.76;99632.09;7554268;33;39307;-78
2023/05/21 17:59:55;;;;;;;8.38;4.12;;;;;;;27.84;33.13;99635.53;7556975;33;40142;-73
2023/05/21 18:04:11;;;;;;;7.75;3.83;;;;;;;27.50;34.14;99642.13;7574654;33;38470;-76
2023/05/21 18:08:28;;;;;;;7.47;3.72;;;;;;;27.11;35.34;99641.81;7559274;33;38648;-74
2023/05/21 18:12:45;;;;;;;11.55;4.07;;;;;;;26.86;36.70;99647.22;7554463;33;38916;-73
2023/05/21 18:17:01;;;;;;;9.30;4.00;;;;;;;26.59;36.86;99650.13;7554114;33;39789;-76
2023/05/21 18:21:17;;;;;;;9.82;3.97;;;;;;;26.17;37.16;99649.28;7553447;33;38912;-78
2023/05/21 18:25:34;;;;;;;14.25;3.67;;;;;;;26.01;37.16;99651.50;7553903;33;37199;-79
2023/05/21 18:29:51;;;;;;;7.95;3.97;;;;;;;25.75;37.95;99650.31;7538631;33;39898;-77
2023/05/21 18:34:07;;;;;;;8.40;4.07;;;;;;;25.56;38.67;99656.00;7537973;33;40623;-75
2023/05/21 18:38:23;;;;;;;9.32;4.25;;;;;;;25.16;39.54;99649.78;7532230;33;37918;-76
2023/05/21 18:42:40;;;;;;;8.70;3.95;;;;;;;24.84;40.45;99657.66;7541234;33;38387;-75
2023/05/21 18:46:57;;;;;;;7.05;4.00;;;;;;;24.83;40.37;99667.97;7536755;33;40147;-78
2023/05/21 18:51:13;;;;;;;9.20;4.43;;;;;;;24.58;40.95;99675.06;7539551;33;40041;-79
2023/05/21 18:55:29;;;;;;;8.38;4.45;;;;;;;24.54;40.75;99661.91;7553192;33;38791;-78
2023/05/21 18:59:45;;;;;;;7.12;4.00;;;;;;;24.46;40.25;99673.25;7566992;33;37107;-78
2023/05/21 19:04:02;;;;;;;6.65;3.95;;;;;;;24.29;40.86;99680.87;7578903;33;40075;-77
2023/05/21 19:08:18;;;;;;;13.07;5.62;;;;;;;24.12;42.49;99678.53;7554124;33;39951;-77
2023/05/21 19:12:35;;;;;;;10.30;4.60;;;;;;;23.75;43.71;99688.06;7547681;33;38205;-75
2023/05/21 19:16:51;;;;;;;15.27;5.35;;;;;;;23.64;44.06;99700.91;7538643;33;36906;-76
2023/05/21 19:21:08;;;;;;;9.82;4.25;;;;;;;23.72;43.76;99702.69;7539040;33;40389;-76
2023/05/21 19:25:24;;;;;;;6.90;4.28;;;;;;;23.53;44.10;99706.25;7539502;33;40802;-76
2023/05/21 19:29:40;;;;;;;7.50;4.60;;;;;;;23.39;44.23;99703.13;7542892;33;37988;-76
2023/05/21 19:33:57;;;;;;;11.05;4.35;;;;;;;23.16;44.91;99702.94;7544487;33;37775;-77
2023/05/21 19:38:14;;;;;;;10.02;4.85;;;;;;;23.15;44.81;99704.94;7555927;33;39886;-77
2023/05/21 19:42:30;;;;;;;10.65;4.65;;;;;;;22.93;45.51;99714.66;7543305;33;39993;-75
2023/05/21 19:46:48;;;;;;;9.13;4.75;;;;;;;22.67;46.00;99709.59;7555979;33;38116;-75
2023/05/21 19:51:05;;;;;;;8.00;4.07;;;;;;;22.46;46.55;99716.16;7556905;33;37815;-76
2023/05/21 19:55:21;;;;;;;7.90;4.43;;;;;;;22.48;46.09;99713.84;7555924;33;39039;-77
2023/05/21 19:59:37;;;;;;;8.23;4.35;;;;;;;22.05;47.66;99712.56;7555793;33;40001;-73
2023/05/21 20:03:54;;;;;;;13.75;5.35;;;;;;;22.40;46.42;99714.00;7555135;33;38653;-77
2023/05/21 20:08:12;;;;;;;8.25;4.87;;;;;;;22.18;47.30;99704.22;7539852;33;37494;-78